Аэропорт: Братск. Братск

ICAO: UIBB

METAR:
2020-08-09 23:30:00
UIBB 092330Z VRB01MPS 8000 NSC 18/10 Q1007 R30/CLRD60 NOSIG RMK QFE713/0950
METAR:
2020-08-09 20:00:00
TAF UIBB 092000Z 0921/1021 36003MPS 9999 SCT020CB